createdAt,value
2022-08-09T00:00:20.111Z,1024.3
2022-08-09T00:06:12.106Z,1024.3
2022-08-09T00:10:21.293Z,1024.3
2022-08-09T00:15:20.104Z,1024.4
2022-08-09T00:20:20.124Z,1024.3
2022-08-09T00:25:23.006Z,1024.4
2022-08-09T00:30:25.837Z,1024.4
2022-08-09T00:35:20.109Z,1024.3
2022-08-09T00:40:20.175Z,1024.3
2022-08-09T00:45:20.147Z,1024.4
2022-08-09T00:50:20.285Z,1024.3
2022-08-09T00:55:33.036Z,1024.3
2022-08-09T01:00:20.862Z,1024.3
2022-08-09T01:05:21.930Z,1024.3
2022-08-09T01:10:20.119Z,1024.3
2022-08-09T01:15:20.112Z,1024.3
2022-08-09T01:20:20.114Z,1024.3
2022-08-09T01:25:20.116Z,1024.4
2022-08-09T01:30:28.360Z,1024.4
2022-08-09T01:35:29.227Z,1024.3
2022-08-09T01:40:23.043Z,1024.3
2022-08-09T01:45:20.104Z,1024.3
2022-08-09T01:50:20.115Z,1024.4
2022-08-09T01:55:20.111Z,1024.4
2022-08-09T02:00:35.344Z,1024.4
2022-08-09T02:05:20.112Z,1024.5
2022-08-09T02:10:20.117Z,1024.5
2022-08-09T02:15:20.106Z,1024.6
2022-08-09T02:20:25.212Z,1024.6
2022-08-09T02:25:20.110Z,1024.7
2022-08-09T02:30:20.113Z,1024.7
2022-08-09T02:35:24.420Z,1024.7
2022-08-09T02:40:24.890Z,1024.6
2022-08-09T02:45:20.126Z,1024.7
2022-08-09T02:50:20.110Z,1024.7
2022-08-09T02:55:21.449Z,1024.6
2022-08-09T03:00:21.680Z,1024.7
2022-08-09T03:05:20.123Z,1024.6
2022-08-09T03:10:20.111Z,1024.7
2022-08-09T03:15:20.109Z,1024.7
2022-08-09T03:20:20.114Z,1024.7
2022-08-09T03:25:26.258Z,1024.8
2022-08-09T03:30:30.316Z,1024.8
2022-08-09T03:35:24.547Z,1024.8
2022-08-09T03:40:20.112Z,1024.9
2022-08-09T03:46:03.434Z,1024.9
2022-08-09T03:50:27.808Z,1024.9
2022-08-09T03:55:20.107Z,1025.1
2022-08-09T04:00:20.116Z,1025.1
2022-08-09T04:05:26.865Z,1025
2022-08-09T04:10:20.613Z,1025.1
2022-08-09T04:15:29.720Z,1025.1
2022-08-09T04:20:20.121Z,1025.1
2022-08-09T04:25:20.114Z,1025.3
2022-08-09T04:30:20.753Z,1025.3
2022-08-09T04:35:21.557Z,1025.3
2022-08-09T04:40:29.187Z,1025.4
2022-08-09T04:45:20.375Z,1025.4
2022-08-09T04:50:20.117Z,1025.5
2022-08-09T04:55:20.112Z,1025.5
2022-08-09T05:00:20.120Z,1025.6
2022-08-09T05:05:31.564Z,1025.6
2022-08-09T05:10:20.114Z,1025.6
2022-08-09T05:15:24.802Z,1025.7
2022-08-09T05:20:20.123Z,1025.7
2022-08-09T05:25:20.108Z,1025.8
2022-08-09T05:30:20.118Z,1025.9
2022-08-09T05:35:21.915Z,1025.9
2022-08-09T05:40:20.156Z,1025.9
2022-08-09T05:45:20.109Z,1025.9
2022-08-09T05:50:31.578Z,1026
2022-08-09T05:55:21.050Z,1026
2022-08-09T06:00:20.126Z,1026.1
2022-08-09T06:05:20.109Z,1026.2
2022-08-09T06:10:20.112Z,1026.2
2022-08-09T06:15:20.120Z,1026.1
2022-08-09T06:20:20.129Z,1026.2
2022-08-09T06:25:21.240Z,1026.2
2022-08-09T06:30:20.118Z,1026.2
2022-08-09T06:35:20.112Z,1026.3
2022-08-09T06:40:21.961Z,1026.3
2022-08-09T06:46:03.392Z,1026.3
2022-08-09T06:50:22.353Z,1026.3
2022-08-09T06:55:22.400Z,1026.4
2022-08-09T07:00:53.301Z,1026.3
2022-08-09T07:05:20.112Z,1026.3
2022-08-09T07:10:24.458Z,1026.3
2022-08-09T07:15:53.342Z,1026.3
2022-08-09T07:20:20.123Z,1026.3
2022-08-09T07:25:20.119Z,1026.3
2022-08-09T07:30:20.123Z,1026.2
2022-08-09T07:35:20.113Z,1026.3
2022-08-09T07:40:25.250Z,1026.2
2022-08-09T07:45:37.263Z,1026.2
2022-08-09T07:50:20.121Z,1026.1
2022-08-09T07:55:20.115Z,1026
2022-08-09T08:00:35.598Z,1026
2022-08-09T08:05:20.110Z,1026
2022-08-09T08:10:20.117Z,1026
2022-08-09T08:15:23.327Z,1026
2022-08-09T08:20:29.670Z,1026
2022-08-09T08:25:20.114Z,1026
2022-08-09T08:30:20.222Z,1026
2022-08-09T08:35:20.126Z,1025.9
2022-08-09T08:40:20.114Z,1025.9
2022-08-09T08:45:32.796Z,1025.9
2022-08-09T08:50:20.116Z,1025.9
2022-08-09T08:55:23.284Z,1025.8
2022-08-09T09:00:21.050Z,1025.8
2022-08-09T09:05:20.107Z,1025.8
2022-08-09T09:10:20.115Z,1025.8
2022-08-09T09:15:28.104Z,1025.7
2022-08-09T09:20:20.734Z,1025.6
2022-08-09T09:26:02.660Z,1025.6
2022-08-09T09:30:39.198Z,1025.5
2022-08-09T09:35:20.106Z,1025.5
2022-08-09T09:40:20.193Z,1025.5
2022-08-09T09:45:26.034Z,1025.5
2022-08-09T09:50:22.814Z,1025.5
2022-08-09T09:55:29.092Z,1025.5
2022-08-09T10:00:20.126Z,1025.4
2022-08-09T10:05:21.699Z,1025.3
2022-08-09T10:10:20.108Z,1025.3
2022-08-09T10:15:25.804Z,1025.3
2022-08-09T10:20:26.804Z,1025.2
2022-08-09T10:25:20.787Z,1025.3
2022-08-09T10:35:20.115Z,1025.2
2022-08-09T10:40:33.576Z,1025.1
2022-08-09T10:45:20.109Z,1025
2022-08-09T10:50:21.017Z,1025.1
2022-08-09T10:55:20.114Z,1025.1
2022-08-09T11:00:20.119Z,1024.9
2022-08-09T11:05:24.506Z,1024.9
2022-08-09T11:10:20.119Z,1025.1
2022-08-09T11:15:20.105Z,1025
2022-08-09T11:20:22.872Z,1025
2022-08-09T11:25:21.352Z,1024.7
2022-08-09T11:30:21.913Z,1024.9
2022-08-09T11:35:22.737Z,1025
2022-08-09T11:40:20.106Z,1024.9
2022-08-09T11:45:20.111Z,1024.8
2022-08-09T11:50:54.505Z,1024.8
2022-08-09T11:55:21.726Z,1024.8
2022-08-09T12:00:22.899Z,1024.8
2022-08-09T12:05:22.810Z,1024.7
2022-08-09T12:10:39.205Z,1024.7
2022-08-09T12:15:22.320Z,1024.7
2022-08-09T12:20:21.459Z,1024.6
2022-08-09T12:25:32.171Z,1024.8
2022-08-09T12:30:29.941Z,1024.7
2022-08-09T12:35:21.834Z,1024.7
2022-08-09T12:40:20.108Z,1024.6
2022-08-09T12:45:33.142Z,1024.6
2022-08-09T12:50:23.574Z,1024.6
2022-08-09T12:56:13.218Z,1024.6
2022-08-09T13:00:23.399Z,1024.5
2022-08-09T13:05:20.108Z,1024.5
2022-08-09T13:10:20.120Z,1024.5
2022-08-09T13:15:20.110Z,1024.4
2022-08-09T13:20:23.222Z,1024.3
2022-08-09T13:25:20.109Z,1024.3
2022-08-09T13:30:49.700Z,1024.3
2022-08-09T13:35:20.107Z,1024.2
2022-08-09T13:41:21.725Z,1024.3
2022-08-09T13:45:20.100Z,1024.3
2022-08-09T13:50:30.210Z,1024.3
2022-08-09T13:55:20.999Z,1024.3
2022-08-09T14:00:20.122Z,1024.1
2022-08-09T14:05:57.864Z,1024
2022-08-09T14:10:29.142Z,1024
2022-08-09T14:16:07.417Z,1024
2022-08-09T14:20:20.113Z,1024.1
2022-08-09T14:25:20.104Z,1024
2022-08-09T14:30:36.062Z,1024
2022-08-09T14:35:20.113Z,1024.1
2022-08-09T14:40:20.124Z,1024
2022-08-09T14:46:41.094Z,1023.9
2022-08-09T14:50:20.110Z,1023.8
2022-08-09T14:55:20.833Z,1023.9
2022-08-09T15:00:20.126Z,1023.8
2022-08-09T15:05:20.105Z,1023.9
2022-08-09T15:10:20.113Z,1023.9
2022-08-09T15:15:20.100Z,1023.9
2022-08-09T15:21:54.236Z,1023.8
2022-08-09T15:25:28.040Z,1023.7
2022-08-09T15:30:48.197Z,1023.8
2022-08-09T15:35:40.573Z,1023.7
2022-08-09T15:40:20.296Z,1023.8
2022-08-09T15:45:21.544Z,1023.7
2022-08-09T15:50:20.111Z,1023.6
2022-08-09T15:55:20.106Z,1023.7
2022-08-09T16:00:24.825Z,1023.7
2022-08-09T16:05:20.111Z,1023.7
2022-08-09T16:10:39.041Z,1023.6
2022-08-09T16:16:04.065Z,1023.6
2022-08-09T16:20:20.121Z,1023.6
2022-08-09T16:25:30.576Z,1023.6
2022-08-09T16:30:25.932Z,1023.5
2022-08-09T16:35:53.614Z,1023.5
2022-08-09T16:40:20.336Z,1023.5
2022-08-09T16:45:20.104Z,1023.5
2022-08-09T16:50:28.430Z,1023.6
2022-08-09T16:55:20.103Z,1023.6
2022-08-09T17:00:20.114Z,1023.5
2022-08-09T17:05:20.179Z,1023.5
2022-08-09T17:10:20.827Z,1023.5
2022-08-09T17:15:31.586Z,1023.5
2022-08-09T17:20:30.703Z,1023.6
2022-08-09T17:25:20.112Z,1023.6
2022-08-09T17:30:20.460Z,1023.6
2022-08-09T17:35:20.104Z,1023.6
2022-08-09T17:40:20.189Z,1023.7
2022-08-09T17:45:23.891Z,1023.7
2022-08-09T17:50:25.185Z,1023.7
2022-08-09T17:55:20.102Z,1023.7
2022-08-09T18:00:20.111Z,1023.7
2022-08-09T18:05:20.107Z,1023.7
2022-08-09T18:10:20.116Z,1023.8
2022-08-09T18:15:20.107Z,1023.8
2022-08-09T18:20:53.644Z,1023.8
2022-08-09T18:25:20.112Z,1023.8
2022-08-09T18:30:37.608Z,1023.8
2022-08-09T18:35:20.115Z,1023.8
2022-08-09T18:40:20.113Z,1023.8
2022-08-09T18:45:21.416Z,1023.9
2022-08-09T18:50:20.129Z,1023.9
2022-08-09T18:55:29.342Z,1024
2022-08-09T19:00:20.707Z,1024
2022-08-09T19:05:28.463Z,1024.2
2022-08-09T19:10:20.122Z,1024.2
2022-08-09T19:15:20.113Z,1024.3
2022-08-09T19:20:20.116Z,1024.4
2022-08-09T19:25:27.156Z,1024.5
2022-08-09T19:30:21.866Z,1024.6
2022-08-09T19:35:20.106Z,1024.6
2022-08-09T19:40:20.176Z,1024.6
2022-08-09T19:45:20.115Z,1024.6
2022-08-09T19:50:48.684Z,1024.6
2022-08-09T19:55:25.451Z,1024.8
2022-08-09T20:00:20.117Z,1024.7
2022-08-09T20:05:20.191Z,1024.8
2022-08-09T20:10:22.276Z,1024.9
2022-08-09T20:16:32.258Z,1024.9
2022-08-09T20:20:20.115Z,1024.9
2022-08-09T20:25:22.529Z,1024.9
2022-08-09T20:30:21.755Z,1024.9
2022-08-09T20:35:20.121Z,1024.9
2022-08-09T20:40:24.883Z,1024.9
2022-08-09T20:45:58.799Z,1025
2022-08-09T20:50:46.325Z,1025.1
2022-08-09T20:55:20.110Z,1025.2
2022-08-09T21:00:22.529Z,1025.2
2022-08-09T21:05:50.373Z,1025.2
2022-08-09T21:10:20.127Z,1025.4
2022-08-09T21:15:23.335Z,1025.4
2022-08-09T21:20:23.162Z,1025.4
2022-08-09T21:25:20.731Z,1025.5
2022-08-09T21:30:22.148Z,1025.5
2022-08-09T21:35:21.613Z,1025.5
2022-08-09T21:40:22.207Z,1025.5
2022-08-09T21:45:20.110Z,1025.6
2022-08-09T21:50:22.304Z,1025.7
2022-08-09T21:55:20.116Z,1025.7
2022-08-09T22:00:25.154Z,1025.8
2022-08-09T22:05:23.135Z,1025.8
2022-08-09T22:10:22.053Z,1025.8
2022-08-09T22:15:20.597Z,1025.9
2022-08-09T22:20:21.726Z,1025.8
2022-08-09T22:26:05.243Z,1025.8
2022-08-09T22:30:25.960Z,1025.8
2022-08-09T22:36:00.421Z,1025.9
2022-08-09T22:40:20.545Z,1025.9
2022-08-09T22:48:06.977Z,1025.9
2022-08-09T22:50:20.110Z,1025.9
2022-08-09T22:55:22.019Z,1026
2022-08-09T23:00:20.121Z,1025.9
2022-08-09T23:05:20.114Z,1026
2022-08-09T23:10:20.124Z,1025.9
2022-08-09T23:15:20.113Z,1025.9
2022-08-09T23:20:20.117Z,1025.8
2022-08-09T23:25:20.120Z,1025.9
2022-08-09T23:30:20.124Z,1025.8
2022-08-09T23:35:20.111Z,1025.7
2022-08-09T23:40:20.107Z,1025.7
2022-08-09T23:45:36.764Z,1025.8
2022-08-09T23:50:20.116Z,1025.8
2022-08-09T23:55:20.124Z,1025.8
